Time;durP1;ratioP1;P1;durP2;ratioP2;P2;SDS_P1;SDS_P2;PMS_P1;PMS_P2;Temp;Humidity;BMP_temperature;BMP_pressure;BME280_temperature;BME280_humidity;BME280_pressure;Samples;Min_cycle;Max_cycle;Signal;HPM_P1;HPM_P2
2024/01/09 00:00:50;;;;;;;1999.90;999.90;;;-4.20;98.10;;;;;;5071122;28;20510;-75
2024/01/09 00:03:16;;;;;;;1999.90;999.90;;;-4.40;97.90;;;;;;5056253;28;20119;-75
2024/01/09 00:05:42;;;;;;;1999.90;999.90;;;-4.30;97.20;;;;;;5070244;28;20033;-75
2024/01/09 00:08:07;;;;;;;1999.90;999.90;;;-4.30;97.50;;;;;;5061874;28;20486;-75
2024/01/09 00:10:33;;;;;;;1999.90;999.90;;;-4.30;97.80;;;;;;5052320;28;20502;-75
2024/01/09 00:12:59;;;;;;;1999.90;999.90;;;-4.40;97.90;;;;;;5066606;28;20033;-75
2024/01/09 00:15:25;;;;;;;1999.90;999.90;;;-4.40;96.90;;;;;;5052652;28;20024;-75
2024/01/09 00:17:51;;;;;;;1999.90;999.90;;;-4.40;97.40;;;;;;5073750;28;20046;-75
2024/01/09 00:20:20;;;;;;;1999.90;999.90;;;-4.40;97.70;;;;;;5073134;28;20087;-74
2024/01/09 00:22:46;;;;;;;1999.90;999.90;;;-4.40;97.90;;;;;;5066638;28;20051;-74
2024/01/09 00:25:12;;;;;;;1999.90;999.90;;;-4.40;97.70;;;;;;5069465;28;20037;-74
2024/01/09 00:27:37;;;;;;;1999.90;999.90;;;-4.30;97.10;;;;;;5068923;28;20028;-74
2024/01/09 00:30:03;;;;;;;1999.90;999.90;;;-4.40;97.60;;;;;;5070582;28;20027;-74
2024/01/09 00:32:30;;;;;;;1999.90;999.90;;;-4.40;97.90;;;;;;5066680;28;20024;-75
2024/01/09 00:34:55;;;;;;;1999.90;999.90;;;-4.40;97.30;;;;;;5069187;28;20158;-75
2024/01/09 00:37:21;;;;;;;1999.90;999.90;;;-4.40;97.80;;;;;;5065380;28;20545;-74
2024/01/09 00:39:50;;;;;;;1999.90;999.90;;;-4.50;97.50;;;;;;5068244;28;20024;-74
2024/01/09 00:42:16;;;;;;;1999.90;999.90;;;-4.50;97.10;;;;;;5068446;28;20082;-74
2024/01/09 00:44:41;;;;;;;1999.90;999.90;;;-4.60;97.00;;;;;;5065092;28;20514;-75
2024/01/09 00:47:07;;;;;;;1999.90;999.90;;;-4.50;96.90;;;;;;5070711;28;20032;-75
2024/01/09 00:49:33;;;;;;;1999.90;999.90;;;-4.50;97.60;;;;;;5055744;28;20436;-74
2024/01/09 00:51:59;;;;;;;1999.90;999.90;;;-4.50;97.60;;;;;;5064223;28;20037;-75
2024/01/09 00:54:24;;;;;;;1999.90;999.90;;;-4.50;97.00;;;;;;5055099;28;20040;-74
2024/01/09 00:56:50;;;;;;;1999.90;999.90;;;-4.40;97.20;;;;;;5065713;28;20099;-74
2024/01/09 00:59:16;;;;;;;1999.90;999.90;;;-4.60;96.70;;;;;;5054593;28;20056;-74
2024/01/09 01:01:51;;;;;;;1999.90;999.90;;;-4.70;97.00;;;;;;5052056;28;20039;-75
2024/01/09 01:04:17;;;;;;;1999.90;999.90;;;-4.70;97.40;;;;;;5052065;28;20035;-74
2024/01/09 01:06:44;;;;;;;1999.90;999.90;;;-4.70;97.50;;;;;;5066943;28;20033;-74
2024/01/09 01:09:10;;;;;;;1999.90;999.90;;;-4.80;97.40;;;;;;5067229;28;20020;-75
2024/01/09 01:11:36;;;;;;;1999.90;999.90;;;-4.70;97.10;;;;;;5065462;28;20659;-74
2024/01/09 01:14:02;;;;;;;1999.90;999.90;;;-4.70;96.00;;;;;;5054820;28;20135;-75
2024/01/09 01:16:28;;;;;;;1999.90;999.90;;;-4.70;97.00;;;;;;5068693;28;20131;-75
2024/01/09 01:18:54;;;;;;;1999.90;999.90;;;-4.70;96.60;;;;;;5070334;28;20592;-75
2024/01/09 01:21:20;;;;;;;1999.90;999.90;;;-4.70;96.90;;;;;;5068215;28;20126;-74
2024/01/09 01:23:45;;;;;;;1999.90;999.90;;;-4.80;96.20;;;;;;5065108;28;20111;-74
2024/01/09 01:26:11;;;;;;;1999.90;999.90;;;-4.70;96.80;;;;;;5053297;28;20044;-74
2024/01/09 01:28:37;;;;;;;1999.90;999.90;;;-4.80;96.70;;;;;;5067202;28;20024;-75
2024/01/09 01:31:03;;;;;;;1999.90;999.90;;;-4.90;96.70;;;;;;5066340;28;20028;-74
2024/01/09 01:33:29;;;;;;;1999.90;999.90;;;-4.90;96.30;;;;;;5066580;28;20494;-75
2024/01/09 01:35:55;;;;;;;1999.90;999.90;;;-4.80;96.70;;;;;;5067907;28;20105;-75
2024/01/09 01:38:20;;;;;;;1999.90;999.90;;;-4.80;96.60;;;;;;5070947;28;20051;-75
2024/01/09 01:40:46;;;;;;;1999.90;999.90;;;-4.70;96.30;;;;;;5049247;28;20767;-75
2024/01/09 01:43:12;;;;;;;1999.90;999.90;;;-4.80;97.10;;;;;;5048563;28;20039;-75
2024/01/09 01:45:38;;;;;;;1999.90;999.90;;;-4.70;96.40;;;;;;5050170;28;20056;-76
2024/01/09 01:48:04;;;;;;;1999.90;999.90;;;-4.80;97.30;;;;;;5065430;28;20044;-76
2024/01/09 01:50:31;;;;;;;1999.90;999.90;;;-4.70;96.60;;;;;;5068291;28;20035;-76
2024/01/09 01:52:59;;;;;;;1999.90;999.90;;;-4.90;96.20;;;;;;5071222;28;20705;-76
2024/01/09 01:55:25;;;;;;;1999.90;999.90;;;-5.00;96.10;;;;;;5066265;28;20028;-75
2024/01/09 01:57:54;;;;;;;1999.90;999.90;;;-4.90;96.90;;;;;;5070485;28;20518;-75
2024/01/09 02:00:21;;;;;;;1999.90;999.90;;;-4.80;97.00;;;;;;5067865;28;20037;-76
2024/01/09 02:02:48;;;;;;;1999.90;999.90;;;-4.80;96.70;;;;;;5065307;28;20025;-76
2024/01/09 02:05:16;;;;;;;1999.90;999.90;;;-4.80;95.90;;;;;;5071521;28;20024;-75
2024/01/09 02:07:45;;;;;;;1999.90;999.90;;;-4.90;96.60;;;;;;5072761;28;20032;-75
2024/01/09 02:10:11;;;;;;;1999.90;999.90;;;-4.90;96.40;;;;;;5049073;28;20033;-74
2024/01/09 02:12:37;;;;;;;1999.90;999.90;;;-4.90;96.70;;;;;;5068680;28;20028;-74
2024/01/09 02:15:04;;;;;;;1999.90;999.90;;;-4.80;96.60;;;;;;5065856;28;20074;-74
2024/01/09 02:17:32;;;;;;;1999.90;999.90;;;-4.90;96.60;;;;;;5053777;28;20721;-75
2024/01/09 02:20:00;;;;;;;1999.90;999.90;;;-5.00;96.60;;;;;;5071521;28;20035;-75
2024/01/09 02:22:26;;;;;;;1999.90;999.90;;;-4.90;96.40;;;;;;5069635;28;20040;-75
2024/01/09 02:24:52;;;;;;;1999.90;999.90;;;-4.90;96.40;;;;;;5073271;28;20039;-75
2024/01/09 02:27:33;;;;;;;1999.90;999.90;;;-4.90;95.30;;;;;;5053917;28;20616;-74
2024/01/09 02:29:59;;;;;;;1999.90;999.90;;;-4.90;96.70;;;;;;5070561;28;20036;-75
2024/01/09 02:32:25;;;;;;;1999.90;999.90;;;-5.00;95.80;;;;;;5055951;28;20035;-75
2024/01/09 02:34:52;;;;;;;1999.90;999.90;;;-5.10;96.20;;;;;;5055215;28;20025;-75
2024/01/09 02:37:17;;;;;;;1999.90;999.90;;;-5.00;96.20;;;;;;5043546;28;20040;-75
2024/01/09 02:39:43;;;;;;;1999.90;999.90;;;-5.00;96.80;;;;;;5071452;28;20025;-74
2024/01/09 02:42:09;;;;;;;1999.90;999.90;;;-4.90;96.90;;;;;;5073750;28;20025;-75
2024/01/09 02:44:34;;;;;;;1999.90;999.90;;;-4.90;96.50;;;;;;5071041;28;20874;-74
2024/01/09 02:47:00;;;;;;;1999.90;999.90;;;-5.00;96.20;;;;;;5070255;28;21507;-75
2024/01/09 02:49:26;;;;;;;1999.90;999.90;;;-5.20;96.00;;;;;;5054855;28;20401;-75
2024/01/09 02:51:52;;;;;;;1999.90;999.90;;;-5.20;95.80;;;;;;5037738;28;20083;-75
2024/01/09 02:54:18;;;;;;;1999.90;999.90;;;-5.10;96.60;;;;;;5069726;28;20059;-75
2024/01/09 02:56:44;;;;;;;1999.90;999.90;;;-5.00;96.60;;;;;;5076332;28;20028;-75
2024/01/09 02:59:09;;;;;;;1999.90;999.90;;;-5.10;96.20;;;;;;5070123;28;20021;-74
2024/01/09 03:01:35;;;;;;;1999.90;999.90;;;-5.10;96.90;;;;;;5068600;28;20514;-75
2024/01/09 03:04:01;;;;;;;1999.90;999.90;;;-5.20;96.40;;;;;;5054676;28;20041;-75
2024/01/09 03:06:26;;;;;;;1999.90;999.90;;;-5.30;96.10;;;;;;5070191;28;20668;-74
2024/01/09 03:08:52;;;;;;;1999.90;999.90;;;-5.20;96.50;;;;;;5049473;28;20078;-75
2024/01/09 03:11:18;;;;;;;1999.90;999.90;;;-5.30;95.80;;;;;;5068133;28;20627;-75
2024/01/09 03:13:45;;;;;;;1999.90;999.90;;;-5.30;96.40;;;;;;5071004;28;20032;-74
2024/01/09 03:16:12;;;;;;;1999.90;999.90;;;-5.40;96.70;;;;;;5074519;28;20024;-75
2024/01/09 03:18:38;;;;;;;1999.90;999.90;;;-5.30;96.40;;;;;;5071195;28;20151;-74
2024/01/09 03:21:04;;;;;;;1999.90;999.90;;;-5.30;95.80;;;;;;5072597;28;20032;-74
2024/01/09 03:23:32;;;;;;;1999.90;999.90;;;-5.20;95.90;;;;;;5072017;28;20076;-74
2024/01/09 03:25:58;;;;;;;1999.90;999.90;;;-5.30;95.10;;;;;;5080648;28;20040;-74
2024/01/09 03:28:25;;;;;;;1999.90;999.90;;;-5.40;96.00;;;;;;5079849;28;20036;-74
2024/01/09 03:30:50;;;;;;;1999.90;999.90;;;-5.40;96.10;;;;;;5081584;28;20035;-74
2024/01/09 03:33:16;;;;;;;1999.90;999.90;;;-5.30;95.80;;;;;;5085960;28;20096;-74
2024/01/09 03:35:42;;;;;;;1999.90;999.90;;;-5.30;96.20;;;;;;5081242;28;20040;-74
2024/01/09 03:38:08;;;;;;;1999.90;999.90;;;-5.30;96.60;;;;;;5070771;28;20024;-74
2024/01/09 03:40:35;;;;;;;1999.90;999.90;;;-5.20;96.00;;;;;;5072912;28;20024;-75
2024/01/09 03:43:01;;;;;;;1999.90;999.90;;;-5.30;95.60;;;;;;5066867;28;20064;-74
2024/01/09 03:45:27;;;;;;;1999.90;999.90;;;-5.40;95.90;;;;;;5071958;28;20039;-75
2024/01/09 03:47:52;;;;;;;1999.90;999.90;;;-5.40;96.60;;;;;;5072458;28;20036;-74
2024/01/09 03:50:18;;;;;;;1999.90;999.90;;;-5.40;96.40;;;;;;5071499;28;20043;-74
2024/01/09 03:52:44;;;;;;;1999.90;999.90;;;-5.50;95.70;;;;;;5072514;28;20664;-75
2024/01/09 03:55:10;;;;;;;1999.90;999.90;;;-5.40;96.20;;;;;;5066248;28;20036;-75
2024/01/09 03:57:35;;;;;;;1999.90;999.90;;;-5.60;96.30;;;;;;5065778;28;20032;-75
2024/01/09 04:00:01;;;;;;;1999.90;999.90;;;-5.50;96.30;;;;;;5069589;28;20032;-75
2024/01/09 04:02:27;;;;;;;1999.90;999.90;;;-5.40;96.30;;;;;;5067200;28;20401;-74
2024/01/09 04:04:52;;;;;;;1999.90;999.90;;;-5.40;96.60;;;;;;5071998;28;20033;-75
2024/01/09 04:07:19;;;;;;;1999.90;999.90;;;-5.40;97.00;;;;;;5069062;28;20028;-74
2024/01/09 04:09:44;;;;;;;1999.90;999.90;;;-5.50;96.70;;;;;;5070605;28;20032;-74
2024/01/09 04:12:10;;;;;;;1999.90;999.90;;;-5.50;96.40;;;;;;5070042;28;20087;-74
2024/01/09 04:14:36;;;;;;;1999.90;999.90;;;-5.50;95.80;;;;;;5063684;28;20050;-74
2024/01/09 04:17:02;;;;;;;1999.90;999.90;;;-5.50;96.20;;;;;;5050455;28;20087;-74
2024/01/09 04:19:27;;;;;;;1999.90;999.90;;;-5.50;96.00;;;;;;5033176;28;20032;-75
2024/01/09 04:21:53;;;;;;;1999.90;999.90;;;-5.50;96.80;;;;;;5069091;28;20048;-74
2024/01/09 04:24:19;;;;;;;1999.90;999.90;;;-5.40;97.10;;;;;;5051077;28;20441;-75
2024/01/09 04:26:44;;;;;;;1999.90;999.90;;;-5.40;96.50;;;;;;5066687;28;20085;-74
2024/01/09 04:29:10;;;;;;;1999.90;999.90;;;-5.30;96.10;;;;;;5068137;28;20127;-75
2024/01/09 04:31:36;;;;;;;1999.90;999.90;;;-5.40;96.60;;;;;;5067689;28;20425;-75
2024/01/09 04:34:02;;;;;;;1999.90;999.90;;;-5.50;96.00;;;;;;5069380;28;20115;-75
2024/01/09 04:36:28;;;;;;;1999.90;999.90;;;-5.40;96.20;;;;;;5032724;28;20032;-74
2024/01/09 04:38:54;;;;;;;1999.90;999.90;;;-5.50;96.10;;;;;;5068715;28;20197;-74
2024/01/09 04:41:19;;;;;;;1999.90;999.90;;;-5.50;96.10;;;;;;5049104;28;20046;-73
2024/01/09 04:43:46;;;;;;;1999.90;999.90;;;-5.60;95.90;;;;;;5073491;28;20052;-74
2024/01/09 04:46:12;;;;;;;1999.90;999.90;;;-5.50;96.10;;;;;;5069524;28;20094;-74
2024/01/09 04:48:37;;;;;;;1999.90;999.90;;;-5.60;96.00;;;;;;5078567;28;20444;-74
2024/01/09 04:51:03;;;;;;;1999.90;999.90;;;-5.50;96.60;;;;;;5072263;28;20031;-74
2024/01/09 04:53:29;;;;;;;1999.90;999.90;;;-5.40;96.20;;;;;;5073183;28;20027;-74
2024/01/09 04:55:55;;;;;;;1999.90;999.90;;;-5.50;96.80;;;;;;5071581;28;20048;-74
2024/01/09 04:58:20;;;;;;;1999.90;999.90;;;-5.40;96.70;;;;;;5051906;28;20398;-74
2024/01/09 05:00:49;;;;;;;1999.90;999.90;;;-5.40;97.00;;;;;;5066149;28;20100;-74
2024/01/09 05:03:15;;;;;;;1999.90;999.90;;;-5.50;96.70;;;;;;5053272;28;20060;-74
2024/01/09 05:05:41;;;;;;;1999.90;999.90;;;-5.50;96.50;;;;;;5071128;28;20067;-74
2024/01/09 05:08:06;;;;;;;1999.90;999.90;;;-5.70;96.70;;;;;;5065369;28;20043;-74
2024/01/09 05:10:32;;;;;;;1999.90;999.90;;;-5.50;96.40;;;;;;5040289;28;20046;-75
2024/01/09 05:12:58;;;;;;;1999.90;999.90;;;-5.60;96.80;;;;;;5072529;28;20024;-75
2024/01/09 05:15:24;;;;;;;1999.90;999.90;;;-5.60;96.30;;;;;;5061531;28;20119;-75
2024/01/09 05:17:50;;;;;;;1999.90;999.90;;;-5.50;95.90;;;;;;5074905;28;20084;-75
2024/01/09 05:20:16;;;;;;;1999.90;999.90;;;-5.60;96.10;;;;;;5071652;28;20435;-75
2024/01/09 05:22:41;;;;;;;1999.90;999.90;;;-5.50;96.00;;;;;;5074848;28;20040;-74
2024/01/09 05:25:08;;;;;;;1999.90;999.90;;;-5.50;96.50;;;;;;5073389;28;20050;-73
2024/01/09 05:27:34;;;;;;;1999.90;999.90;;;-5.40;95.80;;;;;;5070186;28;20039;-74
2024/01/09 05:30:00;;;;;;;1999.90;999.90;;;-5.50;96.10;;;;;;5071210;28;20035;-73
2024/01/09 05:32:26;;;;;;;1999.90;999.90;;;-5.60;96.60;;;;;;5075940;28;20033;-73
2024/01/09 05:34:52;;;;;;;1999.90;999.90;;;-5.60;96.70;;;;;;5075008;28;20036;-76
2024/01/09 05:37:18;;;;;;;1999.90;999.90;;;-5.60;96.70;;;;;;5075050;28;20078;-76
2024/01/09 05:39:46;;;;;;;1999.90;999.90;;;-5.50;96.90;;;;;;5076277;28;20053;-76
2024/01/09 05:42:12;;;;;;;1999.90;999.90;;;-5.50;95.90;;;;;;5078279;28;20036;-77
2024/01/09 05:44:38;;;;;;;1999.90;999.90;;;-5.50;96.80;;;;;;5076896;28;20047;-76
2024/01/09 05:47:04;;;;;;;1999.90;999.90;;;-5.60;96.30;;;;;;5075395;28;20125;-76
2024/01/09 05:49:30;;;;;;;1999.90;999.90;;;-5.70;96.60;;;;;;5073323;28;20266;-75
2024/01/09 05:51:55;;;;;;;1999.90;999.90;;;-5.60;96.20;;;;;;5079287;28;20040;-76
2024/01/09 05:54:21;;;;;;;1999.90;999.90;;;-5.60;96.40;;;;;;5080771;28;20040;-75
2024/01/09 05:56:47;;;;;;;1999.90;999.90;;;-5.50;96.60;;;;;;5063750;28;20039;-75
2024/01/09 05:59:13;;;;;;;1999.90;999.90;;;-5.50;96.90;;;;;;5079093;28;20028;-75
2024/01/09 06:01:38;;;;;;;1999.90;999.90;;;-5.50;96.60;;;;;;5064415;28;20091;-76
2024/01/09 06:04:04;;;;;;;1999.90;999.90;;;-5.60;96.70;;;;;;5079283;28;20024;-76
2024/01/09 06:06:30;;;;;;;1999.90;999.90;;;-5.60;96.40;;;;;;5079306;28;20029;-75
2024/01/09 06:08:56;;;;;;;1999.90;999.90;;;-5.60;96.70;;;;;;5060871;28;20454;-76
2024/01/09 06:11:22;;;;;;;1999.90;999.90;;;-5.70;96.20;;;;;;5061501;28;20036;-76
2024/01/09 06:13:47;;;;;;;1999.90;999.90;;;-5.60;96.00;;;;;;5071966;28;20024;-75
2024/01/09 06:16:13;;;;;;;1999.90;999.90;;;-5.60;96.80;;;;;;5076153;28;20740;-75
2024/01/09 06:18:39;;;;;;;1999.90;999.90;;;-5.50;96.40;;;;;;5079585;28;20028;-76
2024/01/09 06:21:04;;;;;;;1999.90;999.90;;;-5.60;96.40;;;;;;5069336;28;20085;-76
2024/01/09 06:23:30;;;;;;;1999.90;999.90;;;-5.50;96.40;;;;;;5074116;28;20033;-75
2024/01/09 06:25:56;;;;;;;1999.90;999.90;;;-5.60;96.20;;;;;;5071049;28;20309;-75
2024/01/09 06:28:22;;;;;;;1999.90;999.90;;;-5.60;96.10;;;;;;5069813;28;20036;-76
2024/01/09 06:30:47;;;;;;;1999.90;999.90;;;-5.60;96.40;;;;;;5071779;28;20043;-76
2024/01/09 06:33:13;;;;;;;1999.90;999.90;;;-5.70;96.10;;;;;;5066771;28;20059;-75
2024/01/09 06:35:39;;;;;;;1999.90;999.90;;;-5.80;96.40;;;;;;5067686;28;20032;-76
2024/01/09 06:38:04;;;;;;;1999.90;999.90;;;-5.70;96.80;;;;;;5052783;28;20103;-76
2024/01/09 06:40:30;;;;;;;1999.90;999.90;;;-5.70;95.90;;;;;;5057011;28;20513;-75
2024/01/09 06:42:56;;;;;;;1999.90;999.90;;;-5.70;96.00;;;;;;5085235;28;20040;-76
2024/01/09 06:45:21;;;;;;;1999.90;999.90;;;-5.60;96.20;;;;;;5068954;28;20388;-76
2024/01/09 06:47:47;;;;;;;1999.90;999.90;;;-5.70;96.40;;;;;;5069435;28;20028;-77
2024/01/09 06:50:13;;;;;;;1999.90;999.90;;;-5.70;96.20;;;;;;5058032;28;20470;-76
2024/01/09 06:52:39;;;;;;;1999.90;999.90;;;-5.60;96.10;;;;;;5037468;28;20699;-76
2024/01/09 06:55:05;;;;;;;1999.90;999.90;;;-5.70;96.50;;;;;;5055705;28;20418;-76
2024/01/09 06:57:31;;;;;;;1999.90;999.90;;;-5.70;96.40;;;;;;5053458;28;20027;-76
2024/01/09 06:59:56;;;;;;;1999.90;999.90;;;-5.70;95.80;;;;;;5064585;28;20028;-76
2024/01/09 07:02:22;;;;;;;1999.90;999.90;;;-5.80;96.40;;;;;;5067626;28;20039;-76
2024/01/09 07:04:48;;;;;;;1999.90;999.90;;;-5.80;96.20;;;;;;5069494;28;20111;-76
2024/01/09 07:07:14;;;;;;;1999.90;999.90;;;-5.70;96.80;;;;;;5070897;28;20112;-77
2024/01/09 07:09:40;;;;;;;1999.90;999.90;;;-5.70;96.70;;;;;;5069389;28;20032;-76
2024/01/09 07:12:09;;;;;;;1999.90;999.90;;;-5.60;96.60;;;;;;5065752;28;20057;-76
2024/01/09 07:14:37;;;;;;;1999.90;999.90;;;-5.70;97.00;;;;;;5068966;28;20089;-77
2024/01/09 07:17:03;;;;;;;1999.90;999.90;;;-5.60;96.30;;;;;;5066629;28;20143;-76
2024/01/09 07:19:30;;;;;;;1999.90;999.90;;;-5.50;96.20;;;;;;5066724;28;20028;-76
2024/01/09 07:21:56;;;;;;;1999.90;999.90;;;-5.60;96.20;;;;;;5029758;28;20041;-76
2024/01/09 07:24:22;;;;;;;1999.90;999.90;;;-5.70;96.70;;;;;;5027781;28;20060;-76
2024/01/09 07:26:48;;;;;;;1999.90;999.90;;;-5.70;96.10;;;;;;5031747;28;20737;-76
2024/01/09 07:29:16;;;;;;;1999.90;999.90;;;-5.70;96.40;;;;;;5010371;28;20036;-77
2024/01/09 07:31:43;;;;;;;1999.90;999.90;;;-5.70;96.80;;;;;;5008414;28;20183;-77
2024/01/09 07:34:08;;;;;;;1999.90;999.90;;;-5.70;96.70;;;;;;5010530;28;20497;-76
2024/01/09 07:36:34;;;;;;;1999.90;999.90;;;-5.70;96.40;;;;;;5011977;28;20064;-77
2024/01/09 07:39:00;;;;;;;1999.90;999.90;;;-5.70;96.70;;;;;;5024857;28;20125;-77
2024/01/09 07:41:26;;;;;;;1999.90;999.90;;;-5.80;96.00;;;;;;5028574;28;20105;-77
2024/01/09 07:43:52;;;;;;;1999.90;999.90;;;-5.60;95.80;;;;;;5025472;28;20737;-77
2024/01/09 07:46:18;;;;;;;1999.90;999.90;;;-5.60;95.90;;;;;;5010577;28;20995;-77
2024/01/09 07:48:44;;;;;;;1999.90;999.90;;;-5.80;95.90;;;;;;5029181;28;20061;-77
2024/01/09 07:51:10;;;;;;;1999.90;999.90;;;-5.70;96.50;;;;;;5029015;28;20084;-77
2024/01/09 07:53:35;;;;;;;1999.90;999.90;;;-5.70;96.40;;;;;;5021017;28;20056;-77
2024/01/09 07:56:01;;;;;;;1999.90;999.90;;;-5.70;95.90;;;;;;5025334;28;20542;-69
2024/01/09 07:58:27;;;;;;;1999.90;999.90;;;-5.70;96.50;;;;;;5029033;28;20390;-69
2024/01/09 08:00:53;;;;;;;1999.90;999.90;;;-5.70;96.60;;;;;;5009000;28;20053;-69
2024/01/09 08:03:19;;;;;;;1999.90;999.90;;;-5.60;97.00;;;;;;5026116;28;20041;-76
2024/01/09 08:05:45;;;;;;;1999.90;999.90;;;-5.70;96.40;;;;;;5026176;28;20030;-77
2024/01/09 08:08:11;;;;;;;1999.90;999.90;;;-5.60;96.20;;;;;;5005692;28;20030;-77
2024/01/09 08:10:37;;;;;;;1999.90;999.90;;;-5.60;96.10;;;;;;5028137;28;20037;-77
2024/01/09 08:13:03;;;;;;;1999.90;999.90;;;-5.60;95.50;;;;;;5025435;28;20044;-77
2024/01/09 08:15:29;;;;;;;1999.90;999.90;;;-5.70;96.00;;;;;;5024003;28;20033;-77
2024/01/09 08:17:55;;;;;;;1999.90;999.90;;;-5.60;96.20;;;;;;5028675;28;20037;-77
2024/01/09 08:20:20;;;;;;;1999.90;999.90;;;-5.70;96.20;;;;;;5013734;28;20444;-77
2024/01/09 08:22:48;;;;;;;1999.90;999.90;;;-5.70;96.30;;;;;;5051627;28;20035;-78
2024/01/09 08:25:14;;;;;;;1999.90;999.90;;;-5.80;95.80;;;;;;5048250;28;20025;-77
2024/01/09 08:27:40;;;;;;;1999.90;999.90;;;-5.80;95.70;;;;;;5048817;28;20041;-77
2024/01/09 08:30:08;;;;;;;1999.90;999.90;;;-5.70;96.30;;;;;;5029633;28;20082;-77
2024/01/09 08:32:34;;;;;;;1999.90;999.90;;;-5.70;95.70;;;;;;5047047;28;20092;-77
2024/01/09 08:34:59;;;;;;;1999.90;999.90;;;-5.60;96.00;;;;;;5045317;28;20037;-77
2024/01/09 08:37:25;;;;;;;1999.90;999.90;;;-5.70;95.50;;;;;;5045330;28;20029;-77
2024/01/09 08:39:51;;;;;;;1999.90;999.90;;;-5.80;95.20;;;;;;5044707;28;20029;-77
2024/01/09 08:42:16;;;;;;;1999.90;999.90;;;-5.70;96.00;;;;;;5031740;28;20074;-77
2024/01/09 08:44:42;;;;;;;1999.90;999.90;;;-5.70;95.70;;;;;;5049893;28;20037;-77
2024/01/09 08:47:08;;;;;;;1999.90;999.90;;;-5.60;95.70;;;;;;5050808;28;20591;-77
2024/01/09 08:49:34;;;;;;;1999.90;999.90;;;-5.80;95.70;;;;;;5029959;28;20052;-77
2024/01/09 08:51:59;;;;;;;1999.90;999.90;;;-5.60;96.00;;;;;;5022792;28;20037;-77
2024/01/09 08:54:25;;;;;;;1999.90;999.90;;;-5.60;96.20;;;;;;5028022;28;20100;-77
2024/01/09 08:56:51;;;;;;;1999.90;999.90;;;-5.50;96.20;;;;;;5048473;28;20034;-77
2024/01/09 08:59:17;;;;;;;1999.90;999.90;;;-5.50;96.10;;;;;;5047772;28;20033;-77
2024/01/09 09:01:42;;;;;;;1999.90;999.90;;;-5.40;96.30;;;;;;5049127;28;20708;-75
2024/01/09 09:04:08;;;;;;;1999.90;999.90;;;-5.40;96.20;;;;;;5046006;28;20033;-78
2024/01/09 09:06:34;;;;;;;1999.90;999.90;;;-5.40;95.60;;;;;;5044618;28;20222;-78
2024/01/09 09:09:00;;;;;;;1999.90;999.90;;;-5.60;96.00;;;;;;5047458;28;20061;-76
2024/01/09 09:11:25;;;;;;;1999.90;999.90;;;-5.50;96.00;;;;;;5046075;28;20075;-77
2024/01/09 09:13:51;;;;;;;1999.90;999.90;;;-5.40;95.50;;;;;;5027209;28;20037;-76
2024/01/09 09:16:17;;;;;;;1999.90;999.90;;;-5.50;96.00;;;;;;5049607;28;20044;-76
2024/01/09 09:18:44;;;;;;;1999.90;999.90;;;-5.40;96.30;;;;;;5026404;28;20145;-76
2024/01/09 09:21:10;;;;;;;1999.90;999.90;;;-5.40;95.30;;;;;;5026704;28;20132;-77
2024/01/09 09:23:36;;;;;;;1999.90;999.90;;;-5.50;96.00;;;;;;5051369;28;20171;-77
2024/01/09 09:26:03;;;;;;;1999.90;999.90;;;-5.40;96.50;;;;;;5044482;28;20119;-78
2024/01/09 09:28:29;;;;;;;1999.90;999.90;;;-5.40;96.00;;;;;;5012326;28;20518;-77
2024/01/09 09:30:54;;;;;;;1999.90;999.90;;;-5.60;95.40;;;;;;5050624;28;20064;-76
2024/01/09 09:33:20;;;;;;;1999.90;999.90;;;-5.60;95.70;;;;;;5049141;28;20041;-77
2024/01/09 09:35:46;;;;;;;1999.90;999.90;;;-5.60;95.50;;;;;;5014209;28;20053;-80
2024/01/09 09:38:13;;;;;;;1999.90;999.90;;;-5.70;95.60;;;;;;5048568;28;20527;-77
2024/01/09 09:40:41;;;;;;;1999.90;999.90;;;-5.70;95.70;;;;;;5047426;28;20052;-77
2024/01/09 09:43:21;;;;;;;1999.90;999.90;;;-5.50;96.10;;;;;;5045488;28;20028;-77
2024/01/09 09:45:51;;;;;;;1999.90;999.90;;;-5.40;95.60;;;;;;5026186;28;20065;-76
2024/01/09 09:48:20;;;;;;;1999.90;999.90;;;-5.30;94.80;;;;;;5046522;28;20503;-76
2024/01/09 09:50:45;;;;;;;1999.90;999.90;;;-5.30;96.10;;;;;;5047659;28;20087;-77
2024/01/09 09:53:11;;;;;;;1999.90;999.90;;;-5.30;95.80;;;;;;5048248;28;20033;-78
2024/01/09 09:55:38;;;;;;;1999.90;999.90;;;-5.40;96.20;;;;;;5054224;28;20391;-77
2024/01/09 09:58:05;;;;;;;1999.90;999.90;;;-5.40;95.80;;;;;;5066818;28;20084;-78
2024/01/09 10:00:30;;;;;;;1999.90;999.90;;;-5.30;96.00;;;;;;5054116;28;20503;-77
2024/01/09 10:02:59;;;;;;;1999.90;999.90;;;-5.30;95.40;;;;;;5049465;28;20036;-76
2024/01/09 10:05:27;;;;;;;1999.90;999.90;;;-5.40;95.70;;;;;;5052063;28;20615;-77
2024/01/09 10:07:53;;;;;;;1999.90;999.90;;;-5.30;95.70;;;;;;5045992;28;20043;-76
2024/01/09 10:10:20;;;;;;;1999.90;999.90;;;-5.40;95.40;;;;;;5026950;28;20033;-76
2024/01/09 10:12:48;;;;;;;1999.90;999.90;;;-5.50;95.40;;;;;;5045574;28;20032;-76
2024/01/09 10:15:16;;;;;;;1999.90;999.90;;;-5.50;95.50;;;;;;5045529;28;20075;-76
2024/01/09 10:17:43;;;;;;;1999.90;999.90;;;-5.50;95.40;;;;;;5011741;28;20061;-77
2024/01/09 10:20:12;;;;;;;1999.90;999.90;;;-5.40;95.00;;;;;;5025778;28;20029;-77
2024/01/09 10:22:38;;;;;;;1999.90;999.90;;;-5.50;95.50;;;;;;5035911;28;20057;-77
2024/01/09 10:25:05;;;;;;;1999.90;999.90;;;-5.30;95.80;;;;;;5041311;28;20025;-76
2024/01/09 10:27:32;;;;;;;1999.90;999.90;;;-5.20;96.10;;;;;;5039635;28;20034;-77
2024/01/09 10:29:58;;;;;;;1999.90;999.90;;;-5.20;96.10;;;;;;5040955;28;20042;-77
2024/01/09 10:32:23;;;;;;;1999.90;999.90;;;-5.10;95.40;;;;;;5039916;28;20045;-77
2024/01/09 10:34:49;;;;;;;1999.90;999.90;;;-5.30;95.00;;;;;;5041896;28;20021;-76
2024/01/09 10:37:15;;;;;;;1999.90;999.90;;;-5.40;95.80;;;;;;5048077;28;20029;-76
2024/01/09 10:39:47;;;;;;;1999.90;999.90;;;-5.20;95.40;;;;;;5055973;28;20029;-76
2024/01/09 10:42:13;;;;;;;1999.90;999.90;;;-5.20;95.30;;;;;;5056897;28;20029;-77
2024/01/09 10:44:39;;;;;;;1999.90;999.90;;;-5.30;95.10;;;;;;5039540;28;20117;-77
2024/01/09 10:47:13;;;;;;;1999.90;999.90;;;-5.30;95.00;;;;;;5039350;28;20033;-76
2024/01/09 10:49:43;;;;;;;1999.90;999.90;;;-5.10;95.70;;;;;;5049944;28;20134;-78
2024/01/09 10:52:15;;;;;;;1999.90;999.90;;;-5.30;95.60;;;;;;5044462;28;20036;-77
2024/01/09 10:54:42;;;;;;;1999.90;999.90;;;-5.40;95.50;;;;;;5046223;28;20032;-76
2024/01/09 10:57:15;;;;;;;1999.90;999.90;;;-5.20;95.60;;;;;;5044553;28;20026;-77
2024/01/09 10:59:45;;;;;;;1999.90;999.90;;;-5.00;96.00;;;;;;5046536;28;20025;-77
2024/01/09 11:02:22;;;;;;;1999.90;999.90;;;-4.90;95.00;;;;;;5046971;28;20519;-78
2024/01/09 11:04:48;;;;;;;1999.90;999.90;;;-5.00;95.40;;;;;;5045112;28;20056;-78
2024/01/09 11:07:16;;;;;;;1999.90;999.90;;;-4.90;94.30;;;;;;5045976;28;20068;-76
2024/01/09 11:09:46;;;;;;;1999.90;999.90;;;-4.80;95.30;;;;;;5046858;28;20135;-76
2024/01/09 11:12:24;;;;;;;1999.90;999.90;;;-4.80;94.90;;;;;;5029522;28;20427;-76
2024/01/09 11:14:55;;;;;;;1999.90;999.90;;;-5.10;94.70;;;;;;5043053;28;20076;-77
2024/01/09 11:17:21;;;;;;;1999.90;999.90;;;-4.80;94.60;;;;;;5044247;28;20013;-77
2024/01/09 11:19:47;;;;;;;1999.90;999.90;;;-4.70;94.90;;;;;;5045969;28;20030;-73
2024/01/09 11:22:18;;;;;;;1999.90;999.90;;;-4.80;94.90;;;;;;5047435;28;20507;-74
2024/01/09 11:24:50;;;;;;;1999.90;999.90;;;-5.00;94.60;;;;;;5042915;28;20025;-74
2024/01/09 11:27:18;;;;;;;1999.90;999.90;;;-4.90;95.10;;;;;;5028833;28;20135;-75
2024/01/09 11:29:49;;;;;;;1999.90;999.90;;;-4.90;95.30;;;;;;5027567;28;20033;-80
2024/01/09 11:32:16;;;;;;;1999.90;999.90;;;-4.90;95.40;;;;;;5044269;28;20025;-77
2024/01/09 11:34:48;;;;;;;1999.90;999.90;;;-4.70;94.00;;;;;;5034912;28;20033;-80
2024/01/09 11:37:19;;;;;;;1999.90;999.90;;;-4.90;95.00;;;;;;5027814;28;20055;-77
2024/01/09 11:39:44;;;;;;;1999.90;999.90;;;-4.70;95.50;;;;;;5026197;28;20027;-75
2024/01/09 11:42:13;;;;;;;1999.90;999.90;;;-4.60;95.50;;;;;;5043442;28;20032;-75
2024/01/09 11:44:39;;;;;;;1999.90;999.90;;;-4.80;95.10;;;;;;5046971;28;20043;-75
2024/01/09 11:47:05;;;;;;;1999.90;999.90;;;-4.80;95.50;;;;;;5024848;28;20116;-76
2024/01/09 11:49:31;;;;;;;1999.90;999.90;;;-4.60;94.40;;;;;;5008103;28;20151;-76
2024/01/09 11:51:57;;;;;;;1999.90;999.90;;;-4.70;95.00;;;;;;5044327;28;20033;-76
2024/01/09 11:54:22;;;;;;;1999.90;999.90;;;-4.80;94.50;;;;;;5041669;28;20486;-76